createdAt,value
2017-09-06T00:02:22.844Z,7.60
2017-09-06T00:04:51.387Z,7.20
2017-09-06T00:07:19.855Z,6.43
2017-09-06T00:09:48.319Z,7.60
2017-09-06T00:12:16.754Z,6.40
2017-09-06T00:14:45.322Z,6.37
2017-09-06T00:17:13.748Z,7.07
2017-09-06T00:19:42.994Z,6.80
2017-09-06T00:22:13.041Z,7.07
2017-09-06T00:24:41.584Z,6.40
2017-09-06T00:27:10.068Z,6.53
2017-09-06T00:29:38.560Z,6.90
2017-09-06T00:32:06.993Z,7.17
2017-09-06T00:34:35.526Z,5.90
2017-09-06T00:37:03.956Z,6.73
2017-09-06T00:39:32.418Z,6.17
2017-09-06T00:42:00.969Z,7.77
2017-09-06T00:44:29.423Z,7.23
2017-09-06T00:46:57.924Z,6.40
2017-09-06T00:49:26.381Z,6.27
2017-09-06T00:51:54.897Z,6.10
2017-09-06T00:54:23.380Z,6.20
2017-09-06T00:56:51.854Z,6.37
2017-09-06T00:59:20.348Z,7.70
2017-09-06T01:01:48.772Z,6.60
2017-09-06T01:04:17.233Z,5.70
2017-09-06T01:06:45.688Z,5.83
2017-09-06T01:09:14.151Z,6.10
2017-09-06T01:11:42.581Z,5.80
2017-09-06T01:14:11.016Z,6.93
2017-09-06T01:16:39.499Z,6.00
2017-09-06T01:19:07.994Z,6.37
2017-09-06T01:21:36.478Z,6.97
2017-09-06T01:24:04.963Z,6.73
2017-09-06T01:26:33.424Z,6.50
2017-09-06T01:29:01.922Z,6.27
2017-09-06T01:31:30.388Z,6.33
2017-09-06T01:33:58.807Z,5.83
2017-09-06T01:36:27.364Z,6.17
2017-09-06T01:38:55.835Z,6.70
2017-09-06T01:41:24.333Z,6.53
2017-09-06T01:43:52.809Z,6.20
2017-09-06T01:46:21.293Z,5.83
2017-09-06T01:48:49.759Z,5.10
2017-09-06T01:51:18.243Z,5.33
2017-09-06T01:53:46.676Z,5.87
2017-09-06T01:56:15.115Z,5.40
2017-09-06T01:58:43.609Z,5.87
2017-09-06T02:01:12.081Z,6.00
2017-09-06T02:03:40.551Z,5.90
2017-09-06T02:06:09.045Z,5.90
2017-09-06T02:08:37.486Z,5.77
2017-09-06T02:11:06.013Z,5.80
2017-09-06T02:13:34.446Z,5.90
2017-09-06T02:16:02.900Z,5.90
2017-09-06T02:18:31.353Z,5.47
2017-09-06T02:20:59.844Z,5.80
2017-09-06T02:23:28.277Z,6.00
2017-09-06T02:25:56.787Z,5.60
2017-09-06T02:28:25.210Z,6.57
2017-09-06T02:30:53.743Z,5.10
2017-09-06T02:33:22.231Z,6.30
2017-09-06T02:35:50.683Z,6.10
2017-09-06T02:38:19.121Z,5.93
2017-09-06T02:40:47.683Z,6.20
2017-09-06T02:43:16.143Z,5.97
2017-09-06T02:45:44.656Z,5.80
2017-09-06T02:48:13.079Z,6.23
2017-09-06T02:50:41.533Z,5.27
2017-09-06T02:53:10.010Z,5.57
2017-09-06T02:55:38.471Z,5.90
2017-09-06T02:58:06.951Z,6.20
2017-09-06T03:00:35.404Z,5.60
2017-09-06T03:03:03.931Z,6.20
2017-09-06T03:05:32.388Z,6.07
2017-09-06T03:08:00.820Z,6.13
2017-09-06T03:10:29.368Z,5.50
2017-09-06T03:12:57.822Z,6.57
2017-09-06T03:15:26.333Z,5.57
2017-09-06T03:17:54.828Z,5.90
2017-09-06T03:20:23.296Z,6.30
2017-09-06T03:22:51.748Z,6.50
2017-09-06T03:25:20.369Z,6.13
2017-09-06T03:27:48.839Z,5.50
2017-09-06T03:30:17.336Z,8.70
2017-09-06T03:32:45.799Z,6.80
2017-09-06T03:35:14.288Z,7.00
2017-09-06T03:37:42.773Z,7.50
2017-09-06T03:40:11.264Z,7.10
2017-09-06T03:42:39.745Z,7.17
2017-09-06T03:45:08.181Z,7.10
2017-09-06T03:47:36.695Z,7.90
2017-09-06T03:50:05.176Z,7.67
2017-09-06T03:52:33.663Z,7.20
2017-09-06T03:55:02.140Z,6.90
2017-09-06T03:57:30.628Z,7.57
2017-09-06T03:59:59.069Z,7.50
2017-09-06T04:02:27.592Z,7.47
2017-09-06T04:04:56.083Z,7.60
2017-09-06T04:07:24.527Z,7.60
2017-09-06T04:09:53.032Z,7.40
2017-09-06T04:12:21.535Z,7.50
2017-09-06T04:14:49.995Z,7.60
2017-09-06T04:17:18.498Z,7.23
2017-09-06T04:19:46.975Z,6.87
2017-09-06T04:22:15.427Z,7.50
2017-09-06T04:24:43.926Z,8.63
2017-09-06T04:27:12.377Z,7.20
2017-09-06T04:29:40.817Z,7.83
2017-09-06T04:32:09.381Z,7.60
2017-09-06T04:34:37.826Z,6.93
2017-09-06T04:37:07.029Z,8.47
2017-09-06T04:39:35.535Z,7.47
2017-09-06T04:42:03.993Z,8.13
2017-09-06T04:44:32.613Z,7.10
2017-09-06T04:47:01.088Z,8.50
2017-09-06T04:49:29.574Z,7.03
2017-09-06T04:51:58.020Z,7.90
2017-09-06T04:54:26.532Z,8.10
2017-09-06T04:56:55.026Z,6.43
2017-09-06T04:59:23.460Z,7.47
2017-09-06T05:01:51.990Z,7.80
2017-09-06T05:04:20.425Z,8.53
2017-09-06T05:06:48.935Z,8.20
2017-09-06T05:09:17.435Z,8.70
2017-09-06T05:11:45.870Z,8.10
2017-09-06T05:14:14.383Z,7.90
2017-09-06T05:16:42.825Z,8.00
2017-09-06T05:19:11.364Z,8.17
2017-09-06T05:21:39.809Z,7.97
2017-09-06T05:24:08.311Z,9.17
2017-09-06T05:26:36.735Z,7.90
2017-09-06T05:29:05.188Z,8.20
2017-09-06T05:31:33.662Z,7.80
2017-09-06T05:34:02.103Z,7.97
2017-09-06T05:36:30.636Z,7.67
2017-09-06T05:38:59.096Z,8.37
2017-09-06T05:41:27.589Z,8.43
2017-09-06T05:43:56.026Z,8.73
2017-09-06T05:46:24.555Z,7.67
2017-09-06T05:48:53.018Z,7.97
2017-09-06T05:51:21.529Z,9.23
2017-09-06T05:53:49.984Z,9.57
2017-09-06T05:56:18.475Z,9.70
2017-09-06T05:58:46.924Z,9.30
2017-09-06T06:01:15.449Z,8.70
2017-09-06T06:03:43.899Z,10.20
2017-09-06T06:06:12.404Z,9.13
2017-09-06T06:08:40.887Z,8.63
2017-09-06T06:11:09.368Z,10.87
2017-09-06T06:13:37.863Z,9.70
2017-09-06T06:16:06.347Z,8.93
2017-09-06T06:18:34.799Z,10.27
2017-09-06T06:21:03.299Z,9.17
2017-09-06T06:23:31.781Z,9.57
2017-09-06T06:26:00.217Z,9.87
2017-09-06T06:28:28.743Z,10.60
2017-09-06T06:30:57.230Z,8.93
2017-09-06T06:33:25.719Z,12.20
2017-09-06T06:35:54.187Z,9.87
2017-09-06T06:38:22.639Z,10.23
2017-09-06T06:40:51.067Z,10.60
2017-09-06T06:43:19.531Z,8.30
2017-09-06T06:45:48.015Z,9.73
2017-09-06T06:48:16.499Z,10.83
2017-09-06T06:50:44.928Z,11.63
2017-09-06T06:53:13.469Z,11.17
2017-09-06T06:55:41.961Z,10.57
2017-09-06T06:58:10.424Z,14.20
2017-09-06T07:00:38.907Z,13.10
2017-09-06T07:03:07.374Z,13.40
2017-09-06T07:05:36.598Z,13.60
2017-09-06T07:08:05.076Z,12.73
2017-09-06T07:10:33.503Z,13.60
2017-09-06T07:13:02.031Z,14.10
2017-09-06T07:15:30.483Z,14.37
2017-09-06T07:17:58.996Z,11.47
2017-09-06T07:20:27.490Z,13.70
2017-09-06T07:22:55.960Z,12.90
2017-09-06T07:25:24.460Z,13.73
2017-09-06T07:27:52.913Z,12.67
2017-09-06T07:30:21.457Z,14.60
2017-09-06T07:32:49.996Z,13.67
2017-09-06T07:35:18.485Z,12.87
2017-09-06T07:37:46.933Z,14.50
2017-09-06T07:40:15.435Z,12.57
2017-09-06T07:42:43.937Z,13.43
2017-09-06T07:45:12.587Z,13.40
2017-09-06T07:47:41.088Z,13.07
2017-09-06T07:50:09.582Z,14.87
2017-09-06T07:52:38.019Z,15.23
2017-09-06T07:55:06.486Z,13.93
2017-09-06T07:57:34.931Z,13.30
2017-09-06T08:00:03.510Z,13.20
2017-09-06T08:02:31.993Z,16.50
2017-09-06T08:05:00.443Z,13.83
2017-09-06T08:07:28.880Z,13.30
2017-09-06T08:09:57.338Z,14.00
2017-09-06T08:12:25.825Z,13.57
2017-09-06T08:14:54.401Z,14.73
2017-09-06T08:17:22.871Z,13.07
2017-09-06T08:19:51.372Z,12.83
2017-09-06T08:22:19.803Z,13.10
2017-09-06T08:24:48.274Z,11.77
2017-09-06T08:27:16.799Z,11.50
2017-09-06T08:29:45.298Z,10.67
2017-09-06T08:32:13.739Z,13.03
2017-09-06T08:34:42.955Z,10.80
2017-09-06T08:37:11.392Z,10.53
2017-09-06T08:39:39.927Z,10.33
2017-09-06T08:42:08.355Z,10.50
2017-09-06T08:44:36.902Z,9.03
2017-09-06T08:47:05.336Z,8.30
2017-09-06T08:49:33.851Z,8.07
2017-09-06T08:52:02.341Z,7.60
2017-09-06T08:54:30.831Z,8.47
2017-09-06T08:56:59.260Z,8.47
2017-09-06T08:59:27.725Z,7.90
2017-09-06T09:01:56.157Z,8.33
2017-09-06T09:04:24.639Z,7.93
2017-09-06T09:06:53.133Z,8.00
2017-09-06T09:09:21.613Z,6.83
2017-09-06T09:11:50.106Z,7.90
2017-09-06T09:14:18.588Z,8.87
2017-09-06T09:16:47.044Z,8.63
2017-09-06T09:19:15.535Z,8.83
2017-09-06T09:21:44.019Z,9.93
2017-09-06T09:24:12.511Z,9.50
2017-09-06T09:26:40.998Z,10.80
2017-09-06T09:29:09.474Z,10.73
2017-09-06T09:31:37.961Z,12.17
2017-09-06T09:34:06.391Z,11.37
2017-09-06T09:36:34.853Z,11.47
2017-09-06T09:39:03.392Z,12.00
2017-09-06T09:41:31.893Z,10.27
2017-09-06T09:44:00.668Z,12.20
2017-09-06T09:46:29.162Z,13.13
2017-09-06T09:48:57.627Z,13.50
2017-09-06T09:51:26.187Z,14.80
2017-09-06T09:53:54.692Z,15.47
2017-09-06T09:56:23.186Z,15.63
2017-09-06T09:58:51.640Z,15.40
2017-09-06T10:01:20.867Z,15.80
2017-09-06T10:03:49.354Z,17.90
2017-09-06T10:06:17.818Z,17.47
2017-09-06T10:08:46.247Z,19.10
2017-09-06T10:11:14.788Z,17.60
2017-09-06T10:13:43.227Z,18.67
2017-09-06T10:16:11.684Z,18.27
2017-09-06T10:18:40.144Z,20.00
2017-09-06T10:21:08.730Z,19.20
2017-09-06T10:23:37.201Z,18.30
2017-09-06T10:26:05.688Z,18.20
2017-09-06T10:28:34.123Z,16.60
2017-09-06T10:31:02.654Z,20.00
2017-09-06T10:33:31.111Z,17.33
2017-09-06T10:35:59.581Z,18.50
2017-09-06T10:38:28.771Z,17.50
2017-09-06T10:40:57.285Z,19.30
2017-09-06T10:43:25.789Z,16.57
2017-09-06T10:45:54.471Z,16.47
2017-09-06T10:48:23.532Z,18.90
2017-09-06T10:50:52.042Z,19.57
2017-09-06T10:53:20.525Z,18.33
2017-09-06T10:55:48.999Z,16.40
2017-09-06T10:58:17.495Z,17.97
2017-09-06T11:00:45.953Z,18.83
2017-09-06T11:03:14.456Z,17.43
2017-09-06T11:05:42.934Z,16.80
2017-09-06T11:08:11.399Z,16.60
2017-09-06T11:10:39.903Z,16.37
2017-09-06T11:13:08.365Z,15.90
2017-09-06T11:15:36.868Z,17.43
2017-09-06T11:18:05.331Z,17.27
2017-09-06T11:20:33.835Z,14.77
2017-09-06T11:23:02.520Z,17.50
2017-09-06T11:25:30.992Z,16.80
2017-09-06T11:27:59.482Z,16.70
2017-09-06T11:30:27.959Z,20.27
2017-09-06T11:32:56.442Z,15.97
2017-09-06T11:35:24.871Z,17.50
2017-09-06T11:37:53.342Z,16.10
2017-09-06T11:40:21.780Z,17.53
2017-09-06T11:42:50.255Z,16.60
2017-09-06T11:45:18.695Z,16.13
2017-09-06T11:47:47.219Z,17.57
2017-09-06T11:50:15.648Z,17.00
2017-09-06T11:52:44.118Z,15.03
2017-09-06T11:55:12.668Z,13.80
2017-09-06T11:57:41.135Z,15.00
2017-09-06T12:00:09.572Z,12.57
2017-09-06T12:02:38.122Z,13.07
2017-09-06T12:05:06.591Z,13.90
2017-09-06T12:07:35.033Z,13.80
2017-09-06T12:10:03.461Z,13.40
2017-09-06T12:12:31.929Z,13.03
2017-09-06T12:15:00.365Z,12.00
2017-09-06T12:17:28.904Z,13.00
2017-09-06T12:19:57.379Z,12.77
2017-09-06T12:22:25.832Z,12.60
2017-09-06T12:24:54.344Z,13.50
2017-09-06T12:27:22.837Z,12.40
2017-09-06T12:29:51.312Z,12.10
2017-09-06T12:32:19.809Z,11.90
2017-09-06T12:34:48.272Z,10.93
2017-09-06T12:37:16.765Z,9.87
2017-09-06T12:39:45.208Z,10.33
2017-09-06T12:42:14.454Z,9.93
2017-09-06T12:44:42.915Z,10.50
2017-09-06T12:47:11.403Z,9.33
2017-09-06T12:49:39.894Z,10.13
2017-09-06T12:52:08.373Z,10.67
2017-09-06T12:54:36.821Z,9.10
2017-09-06T12:57:05.331Z,9.20
2017-09-06T12:59:33.760Z,9.47
2017-09-06T13:02:02.245Z,9.10
2017-09-06T13:04:30.776Z,9.07
2017-09-06T13:06:59.255Z,8.97
2017-09-06T13:09:27.703Z,9.30
2017-09-06T13:11:56.220Z,7.90
2017-09-06T13:14:24.676Z,9.47
2017-09-06T13:16:53.193Z,9.00
2017-09-06T13:19:21.678Z,8.70
2017-09-06T13:21:50.122Z,8.40
2017-09-06T13:24:18.581Z,7.10
2017-09-06T13:26:47.117Z,8.00
2017-09-06T13:29:15.607Z,7.63
2017-09-06T13:31:44.049Z,7.80
2017-09-06T13:34:12.505Z,6.47
2017-09-06T13:36:40.945Z,8.00
2017-09-06T13:39:09.387Z,6.70
2017-09-06T13:41:37.899Z,6.90
2017-09-06T13:44:06.399Z,6.53
2017-09-06T13:46:34.831Z,7.20
2017-09-06T13:49:03.353Z,6.40
2017-09-06T13:51:31.776Z,6.70
2017-09-06T13:54:00.215Z,5.83
2017-09-06T13:56:28.649Z,5.50
2017-09-06T13:58:57.100Z,5.87
2017-09-06T14:01:25.531Z,5.87
2017-09-06T14:03:54.041Z,5.13
2017-09-06T14:06:22.506Z,5.00
2017-09-06T14:08:51.009Z,5.43
2017-09-06T14:11:19.488Z,5.87
2017-09-06T14:13:47.927Z,5.20
2017-09-06T14:16:16.457Z,5.77
2017-09-06T14:18:44.918Z,5.97
2017-09-06T14:21:13.420Z,5.83
2017-09-06T14:23:41.897Z,5.90
2017-09-06T14:26:10.329Z,6.33
2017-09-06T14:28:38.864Z,5.63
2017-09-06T14:31:07.335Z,5.80
2017-09-06T14:33:35.780Z,6.27
2017-09-06T14:36:04.222Z,5.40
2017-09-06T14:38:32.697Z,6.67
2017-09-06T14:41:01.206Z,6.03
2017-09-06T14:43:29.643Z,5.07
2017-09-06T14:45:58.137Z,5.30
2017-09-06T14:48:26.619Z,5.80
2017-09-06T14:50:55.050Z,5.60
2017-09-06T14:53:23.503Z,5.00
2017-09-06T14:55:51.967Z,6.13
2017-09-06T14:58:20.445Z,5.50
2017-09-06T15:00:48.881Z,5.63
2017-09-06T15:03:18.226Z,5.53
2017-09-06T15:05:46.700Z,7.00
2017-09-06T15:08:15.188Z,7.77
2017-09-06T15:10:43.644Z,8.47
2017-09-06T15:13:12.263Z,11.00
2017-09-06T15:15:40.837Z,11.23
2017-09-06T15:18:09.326Z,11.40
2017-09-06T15:20:37.806Z,12.77
2017-09-06T15:23:06.285Z,12.60
2017-09-06T15:25:34.759Z,14.00
2017-09-06T15:28:03.211Z,13.20
2017-09-06T15:30:31.723Z,15.67
2017-09-06T15:33:00.212Z,15.57
2017-09-06T15:35:28.659Z,15.47
2017-09-06T15:37:57.169Z,15.70
2017-09-06T15:40:25.647Z,16.27
2017-09-06T15:42:54.131Z,14.63
2017-09-06T15:45:22.627Z,15.73
2017-09-06T15:47:51.060Z,17.47
2017-09-06T15:50:19.521Z,18.00
2017-09-06T15:52:47.955Z,17.53
2017-09-06T15:55:16.451Z,16.93
2017-09-06T15:57:44.924Z,17.07
2017-09-06T16:00:13.414Z,16.13
2017-09-06T16:02:41.866Z,17.37
2017-09-06T16:05:10.386Z,17.60
2017-09-06T16:07:38.825Z,16.30
2017-09-06T16:10:07.348Z,16.27
2017-09-06T16:12:35.817Z,15.40
2017-09-06T16:15:04.268Z,15.27
2017-09-06T16:17:32.697Z,16.10
2017-09-06T16:20:01.161Z,15.00
2017-09-06T16:22:29.606Z,13.80
2017-09-06T16:24:58.056Z,14.03
2017-09-06T16:27:26.511Z,11.90
2017-09-06T16:29:54.977Z,14.70
2017-09-06T16:32:23.464Z,12.30
2017-09-06T16:34:51.914Z,9.50
2017-09-06T16:37:21.119Z,9.60
2017-09-06T16:39:49.636Z,8.63
2017-09-06T16:42:18.197Z,7.90
2017-09-06T16:44:46.701Z,7.33
2017-09-06T16:47:15.139Z,7.57
2017-09-06T16:49:43.665Z,7.67
2017-09-06T16:52:12.150Z,7.97
2017-09-06T16:54:40.581Z,6.37
2017-09-06T16:57:09.114Z,7.83
2017-09-06T16:59:37.548Z,7.70
2017-09-06T17:02:06.012Z,7.60
2017-09-06T17:04:34.435Z,7.30
2017-09-06T17:07:03.440Z,7.13
2017-09-06T17:09:42.690Z,6.80
2017-09-06T17:12:11.160Z,8.23
2017-09-06T17:14:39.639Z,8.83
2017-09-06T17:17:08.096Z,6.13
2017-09-06T17:19:36.613Z,3.80
2017-09-06T17:22:05.055Z,2.40
2017-09-06T17:24:33.563Z,1.73
2017-09-06T17:27:02.049Z,2.20
2017-09-06T17:29:30.532Z,1.50
2017-09-06T17:31:59.021Z,1.43
2017-09-06T17:34:27.506Z,1.70
2017-09-06T17:36:56.284Z,1.60
2017-09-06T17:39:24.756Z,2.27
2017-09-06T17:41:53.247Z,1.33
2017-09-06T17:44:21.737Z,1.73
2017-09-06T17:46:50.228Z,1.50
2017-09-06T17:49:18.705Z,1.40
2017-09-06T17:51:47.165Z,1.37
2017-09-06T17:54:15.653Z,1.30
2017-09-06T17:56:44.151Z,0.87
2017-09-06T17:59:12.575Z,0.90
2017-09-06T18:01:41.039Z,0.70
2017-09-06T18:04:09.488Z,1.00
2017-09-06T18:06:37.977Z,0.87
2017-09-06T18:09:06.443Z,0.70
2017-09-06T18:11:34.935Z,0.70
2017-09-06T18:14:03.407Z,0.80
2017-09-06T18:16:31.835Z,0.87
2017-09-06T18:19:00.388Z,0.90
2017-09-06T18:21:28.860Z,0.90
2017-09-06T18:23:57.349Z,0.90
2017-09-06T18:26:25.779Z,0.70
2017-09-06T18:28:54.324Z,0.90
2017-09-06T18:31:22.758Z,0.73
2017-09-06T18:33:51.221Z,0.70
2017-09-06T18:36:20.373Z,0.70
2017-09-06T18:38:48.820Z,0.80
2017-09-06T18:41:18.021Z,0.57
2017-09-06T18:43:46.477Z,0.70
2017-09-06T18:46:15.028Z,0.60
2017-09-06T18:48:43.588Z,0.80
2017-09-06T18:51:12.089Z,0.73
2017-09-06T18:53:40.544Z,0.60
2017-09-06T18:56:09.032Z,0.50
2017-09-06T18:58:37.516Z,0.70
2017-09-06T19:01:05.943Z,0.50
2017-09-06T19:03:34.494Z,0.50
2017-09-06T19:06:02.922Z,0.60
2017-09-06T19:08:31.377Z,0.60
2017-09-06T19:10:59.849Z,0.80
2017-09-06T19:13:28.423Z,0.50
2017-09-06T19:15:56.902Z,0.70
2017-09-06T19:18:25.386Z,0.60
2017-09-06T19:20:53.826Z,0.70
2017-09-06T19:23:22.341Z,0.50
2017-09-06T19:25:50.826Z,0.60
2017-09-06T19:28:19.320Z,0.67
2017-09-06T19:30:47.777Z,0.80
2017-09-06T19:33:17.104Z,0.60
2017-09-06T19:35:45.664Z,0.50
2017-09-06T19:38:14.151Z,0.73
2017-09-06T19:40:42.632Z,1.90
2017-09-06T19:43:11.127Z,1.10
2017-09-06T19:45:39.575Z,0.80
2017-09-06T19:48:08.084Z,0.83
2017-09-06T19:50:36.522Z,0.90
2017-09-06T19:53:05.055Z,0.73
2017-09-06T19:55:33.523Z,0.80
2017-09-06T19:58:02.019Z,0.93
2017-09-06T20:00:30.506Z,0.70
2017-09-06T20:02:58.942Z,0.70
2017-09-06T20:05:28.276Z,0.70
2017-09-06T20:07:56.751Z,1.10
2017-09-06T20:10:25.235Z,0.90
2017-09-06T20:12:53.720Z,1.57
2017-09-06T20:15:22.208Z,0.60
2017-09-06T20:17:50.637Z,1.00
2017-09-06T20:20:19.173Z,0.90
2017-09-06T20:22:47.635Z,0.80
2017-09-06T20:25:16.127Z,0.90
2017-09-06T20:27:44.612Z,1.50
2017-09-06T20:30:13.087Z,1.10
2017-09-06T20:32:41.518Z,0.80
2017-09-06T20:35:09.984Z,1.10
2017-09-06T20:37:38.434Z,1.20
2017-09-06T20:40:06.930Z,1.30
2017-09-06T20:42:35.383Z,1.80
2017-09-06T20:45:04.600Z,1.30
2017-09-06T20:47:33.057Z,1.40
2017-09-06T20:50:01.475Z,1.77
2017-09-06T20:52:29.937Z,1.37
2017-09-06T20:54:58.364Z,1.10
2017-09-06T20:57:26.923Z,1.60
2017-09-06T20:59:55.342Z,2.10
2017-09-06T21:02:23.793Z,1.77
2017-09-06T21:04:52.211Z,1.60
2017-09-06T21:07:20.737Z,1.80
2017-09-06T21:09:49.180Z,2.43
2017-09-06T21:12:17.692Z,2.23
2017-09-06T21:14:46.189Z,2.60
2017-09-06T21:17:14.628Z,2.13
2017-09-06T21:19:43.074Z,2.00
2017-09-06T21:22:11.621Z,2.67
2017-09-06T21:24:40.058Z,2.33
2017-09-06T21:27:08.498Z,2.23
2017-09-06T21:29:36.948Z,2.53
2017-09-06T21:32:05.445Z,2.40
2017-09-06T21:34:33.928Z,2.93
2017-09-06T21:37:02.360Z,2.73
2017-09-06T21:39:30.808Z,2.03
2017-09-06T21:41:59.280Z,2.20
2017-09-06T21:44:27.765Z,2.77
2017-09-06T21:46:56.246Z,3.10
2017-09-06T21:49:24.720Z,2.27
2017-09-06T21:51:53.209Z,2.80
2017-09-06T21:54:21.657Z,2.27
2017-09-06T21:56:50.179Z,2.40
2017-09-06T21:59:18.651Z,3.10
2017-09-06T22:01:47.127Z,2.83
2017-09-06T22:04:15.573Z,2.17
2017-09-06T22:06:44.087Z,3.03
2017-09-06T22:09:12.540Z,3.47
2017-09-06T22:11:41.054Z,4.00
2017-09-06T22:14:09.513Z,3.13
2017-09-06T22:16:38.019Z,2.17
2017-09-06T22:19:06.513Z,3.03
2017-09-06T22:21:34.997Z,3.40
2017-09-06T22:24:03.464Z,2.97
2017-09-06T22:26:31.893Z,3.53
2017-09-06T22:29:00.352Z,3.83
2017-09-06T22:31:28.779Z,3.10
2017-09-06T22:33:57.704Z,3.50
2017-09-06T22:36:26.135Z,3.83
2017-09-06T22:38:54.577Z,3.00
2017-09-06T22:41:23.047Z,3.00
2017-09-06T22:43:51.532Z,3.20
2017-09-06T22:46:20.011Z,3.47
2017-09-06T22:48:48.491Z,3.00
2017-09-06T22:51:16.988Z,4.00
2017-09-06T22:53:45.429Z,3.17
2017-09-06T22:56:13.939Z,2.70
2017-09-06T22:58:42.431Z,4.20
2017-09-06T23:01:10.904Z,3.33
2017-09-06T23:03:39.392Z,3.90
2017-09-06T23:06:07.864Z,3.60
2017-09-06T23:08:36.302Z,2.90
2017-09-06T23:11:04.761Z,3.47
2017-09-06T23:13:33.212Z,3.60
2017-09-06T23:16:01.706Z,3.30
2017-09-06T23:18:30.149Z,3.87
2017-09-06T23:20:58.588Z,3.10
2017-09-06T23:23:27.036Z,4.00
2017-09-06T23:25:55.525Z,3.87
2017-09-06T23:28:23.951Z,4.50
2017-09-06T23:30:52.400Z,3.87
2017-09-06T23:33:20.877Z,3.40
2017-09-06T23:35:49.342Z,3.63
2017-09-06T23:38:17.828Z,3.40
2017-09-06T23:40:46.319Z,4.70
2017-09-06T23:43:14.760Z,4.10
2017-09-06T23:45:43.219Z,3.23
2017-09-06T23:48:11.760Z,4.70
2017-09-06T23:50:40.229Z,3.30
2017-09-06T23:53:08.724Z,4.37
2017-09-06T23:55:37.209Z,3.60
2017-09-06T23:58:05.689Z,4.30
